sensor_id;sensor_type;location;lat;lon;timestamp;temperature;humidity
53645;DHT22;39547;45.554;12.068;2022-10-17T00:02:54;17.20;84.40
53645;DHT22;39547;45.554;12.068;2022-10-17T00:08:56;17.20;84.50
53645;DHT22;39547;45.554;12.068;2022-10-17T00:14:57;17.20;84.50
53645;DHT22;39547;45.554;12.068;2022-10-17T00:20:59;17.20;84.40
53645;DHT22;39547;45.554;12.068;2022-10-17T00:27:01;17.20;84.60
53645;DHT22;39547;45.554;12.068;2022-10-17T00:33:03;17.20;84.60
53645;DHT22;39547;45.554;12.068;2022-10-17T00:39:05;17.20;84.70
53645;DHT22;39547;45.554;12.068;2022-10-17T00:51:09;17.30;84.80
53645;DHT22;39547;45.554;12.068;2022-10-17T00:57:11;17.30;84.80
53645;DHT22;39547;45.554;12.068;2022-10-17T01:03:14;17.30;84.70
53645;DHT22;39547;45.554;12.068;2022-10-17T01:09:16;17.20;84.70
53645;DHT22;39547;45.554;12.068;2022-10-17T01:28:09;16.90;84.90
53645;DHT22;39547;45.554;12.068;2022-10-17T01:34:43;16.80;85.10
53645;DHT22;39547;45.554;12.068;2022-10-17T01:47:03;16.70;85.20
53645;DHT22;39547;45.554;12.068;2022-10-17T01:53:35;16.70;85.20
53645;DHT22;39547;45.554;12.068;2022-10-17T01:59:40;16.70;85.30
53645;DHT22;39547;45.554;12.068;2022-10-17T02:05:43;16.80;85.30
53645;DHT22;39547;45.554;12.068;2022-10-17T02:24:39;16.90;85.50
53645;DHT22;39547;45.554;12.068;2022-10-17T02:30:56;16.90;85.30
53645;DHT22;39547;45.554;12.068;2022-10-17T02:37:01;16.80;85.30
53645;DHT22;39547;45.554;12.068;2022-10-17T02:43:04;16.80;85.30
53645;DHT22;39547;45.554;12.068;2022-10-17T02:55:29;16.70;85.40
53645;DHT22;39547;45.554;12.068;2022-10-17T03:01:31;16.60;85.40
53645;DHT22;39547;45.554;12.068;2022-10-17T03:07:32;16.50;85.40
53645;DHT22;39547;45.554;12.068;2022-10-17T03:13:35;16.40;85.50
53645;DHT22;39547;45.554;12.068;2022-10-17T03:19:36;16.30;85.50
53645;DHT22;39547;45.554;12.068;2022-10-17T03:25:38;16.30;85.60
53645;DHT22;39547;45.554;12.068;2022-10-17T03:31:40;16.20;85.60
53645;DHT22;39547;45.554;12.068;2022-10-17T03:37:43;16.20;85.50
53645;DHT22;39547;45.554;12.068;2022-10-17T03:43:45;16.20;85.50
53645;DHT22;39547;45.554;12.068;2022-10-17T03:49:47;16.10;85.50
53645;DHT22;39547;45.554;12.068;2022-10-17T03:55:49;16.00;85.50
53645;DHT22;39547;45.554;12.068;2022-10-17T04:01:52;15.90;85.50
53645;DHT22;39547;45.554;12.068;2022-10-17T04:07:54;15.90;85.50
53645;DHT22;39547;45.554;12.068;2022-10-17T04:14:04;15.80;85.50
53645;DHT22;39547;45.554;12.068;2022-10-17T04:20:06;15.70;85.50
53645;DHT22;39547;45.554;12.068;2022-10-17T04:26:08;15.70;85.60
53645;DHT22;39547;45.554;12.068;2022-10-17T04:32:10;15.70;85.60
53645;DHT22;39547;45.554;12.068;2022-10-17T04:38:20;15.70;85.70
53645;DHT22;39547;45.554;12.068;2022-10-17T04:44:22;15.60;85.60
53645;DHT22;39547;45.554;12.068;2022-10-17T04:50:26;15.60;85.60
53645;DHT22;39547;45.554;12.068;2022-10-17T04:56:46;15.60;85.60
53645;DHT22;39547;45.554;12.068;2022-10-17T05:02:49;15.50;85.60
53645;DHT22;39547;45.554;12.068;2022-10-17T05:08:50;15.50;85.70
53645;DHT22;39547;45.554;12.068;2022-10-17T05:14:54;15.50;85.70
53645;DHT22;39547;45.554;12.068;2022-10-17T05:20:58;15.40;85.70
53645;DHT22;39547;45.554;12.068;2022-10-17T05:26:59;15.30;85.70
53645;DHT22;39547;45.554;12.068;2022-10-17T05:33:01;15.30;85.80
53645;DHT22;39547;45.554;12.068;2022-10-17T05:39:03;15.20;85.90
53645;DHT22;39547;45.554;12.068;2022-10-17T05:45:07;15.20;85.90
53645;DHT22;39547;45.554;12.068;2022-10-17T05:51:09;15.20;85.90
53645;DHT22;39547;45.554;12.068;2022-10-17T05:57:11;15.20;85.90
53645;DHT22;39547;45.554;12.068;2022-10-17T06:03:14;15.20;85.80
53645;DHT22;39547;45.554;12.068;2022-10-17T06:09:15;15.20;85.90
53645;DHT22;39547;45.554;12.068;2022-10-17T06:15:21;15.20;85.90
53645;DHT22;39547;45.554;12.068;2022-10-17T06:21:30;15.30;85.90
53645;DHT22;39547;45.554;12.068;2022-10-17T06:27:41;15.20;86.00
53645;DHT22;39547;45.554;12.068;2022-10-17T06:33:43;15.30;85.80
53645;DHT22;39547;45.554;12.068;2022-10-17T06:39:45;15.30;85.90
53645;DHT22;39547;45.554;12.068;2022-10-17T06:45:50;15.30;85.80
53645;DHT22;39547;45.554;12.068;2022-10-17T06:51:59;15.30;85.60
53645;DHT22;39547;45.554;12.068;2022-10-17T06:58:21;15.30;85.70
53645;DHT22;39547;45.554;12.068;2022-10-17T07:04:41;15.30;85.80
53645;DHT22;39547;45.554;12.068;2022-10-17T07:10:42;15.40;85.70
53645;DHT22;39547;45.554;12.068;2022-10-17T07:16:44;15.60;85.80
53645;DHT22;39547;45.554;12.068;2022-10-17T07:22:55;15.70;85.60
53645;DHT22;39547;45.554;12.068;2022-10-17T07:28:57;15.80;85.60
53645;DHT22;39547;45.554;12.068;2022-10-17T07:35:33;15.90;85.50
53645;DHT22;39547;45.554;12.068;2022-10-17T07:41:34;16.20;85.40
53645;DHT22;39547;45.554;12.068;2022-10-17T07:47:36;16.20;85.20
53645;DHT22;39547;45.554;12.068;2022-10-17T07:53:41;16.40;85.30
53645;DHT22;39547;45.554;12.068;2022-10-17T07:59:44;16.70;84.90
53645;DHT22;39547;45.554;12.068;2022-10-17T08:05:46;16.80;84.70
53645;DHT22;39547;45.554;12.068;2022-10-17T08:11:47;16.90;84.60
53645;DHT22;39547;45.554;12.068;2022-10-17T08:17:49;17.20;84.40
53645;DHT22;39547;45.554;12.068;2022-10-17T08:23:51;17.40;84.10
53645;DHT22;39547;45.554;12.068;2022-10-17T08:29:52;17.60;83.80
53645;DHT22;39547;45.554;12.068;2022-10-17T08:35:56;17.80;83.60
53645;DHT22;39547;45.554;12.068;2022-10-17T08:48:15;18.10;83.10
53645;DHT22;39547;45.554;12.068;2022-10-17T08:54:25;18.30;83.10
53645;DHT22;39547;45.554;12.068;2022-10-17T09:00:30;18.50;82.90
53645;DHT22;39547;45.554;12.068;2022-10-17T09:06:39;18.70;82.80
53645;DHT22;39547;45.554;12.068;2022-10-17T09:19:24;19.00;82.40
53645;DHT22;39547;45.554;12.068;2022-10-17T09:25:33;19.20;82.20
53645;DHT22;39547;45.554;12.068;2022-10-17T09:31:46;19.30;82.00
53645;DHT22;39547;45.554;12.068;2022-10-17T09:37:49;19.60;81.70
53645;DHT22;39547;45.554;12.068;2022-10-17T09:43:55;19.80;81.40
53645;DHT22;39547;45.554;12.068;2022-10-17T09:49:57;20.00;80.20
53645;DHT22;39547;45.554;12.068;2022-10-17T09:56:01;20.10;80.20
53645;DHT22;39547;45.554;12.068;2022-10-17T10:08:16;20.40;78.90
53645;DHT22;39547;45.554;12.068;2022-10-17T10:14:23;20.70;78.60
53645;DHT22;39547;45.554;12.068;2022-10-17T10:26:40;21.00;78.20
53645;DHT22;39547;45.554;12.068;2022-10-17T10:32:44;21.10;77.40
53645;DHT22;39547;45.554;12.068;2022-10-17T10:38:55;21.30;76.80
53645;DHT22;39547;45.554;12.068;2022-10-17T10:45:19;21.30;75.30
53645;DHT22;39547;45.554;12.068;2022-10-17T10:51:34;21.50;75.70
53645;DHT22;39547;45.554;12.068;2022-10-17T10:57:39;21.70;75.30
53645;DHT22;39547;45.554;12.068;2022-10-17T11:10:29;21.90;75.30
53645;DHT22;39547;45.554;12.068;2022-10-17T11:22:56;22.10;74.50
53645;DHT22;39547;45.554;12.068;2022-10-17T11:29:02;22.20;73.50
53645;DHT22;39547;45.554;12.068;2022-10-17T11:41:18;22.40;72.20
53645;DHT22;39547;45.554;12.068;2022-10-17T11:47:33;22.60;71.00
53645;DHT22;39547;45.554;12.068;2022-10-17T12:06:50;23.20;69.60
53645;DHT22;39547;45.554;12.068;2022-10-17T12:12:53;23.30;69.10
53645;DHT22;39547;45.554;12.068;2022-10-17T12:25:03;23.50;66.20
53645;DHT22;39547;45.554;12.068;2022-10-17T12:31:24;23.60;67.30
53645;DHT22;39547;45.554;12.068;2022-10-17T12:43:54;23.60;67.20
53645;DHT22;39547;45.554;12.068;2022-10-17T12:49:55;23.70;67.40
53645;DHT22;39547;45.554;12.068;2022-10-17T12:56:00;23.80;66.20
53645;DHT22;39547;45.554;12.068;2022-10-17T13:02:02;23.80;66.50
53645;DHT22;39547;45.554;12.068;2022-10-17T13:08:07;23.80;67.00
53645;DHT22;39547;45.554;12.068;2022-10-17T13:14:12;23.80;66.60
53645;DHT22;39547;45.554;12.068;2022-10-17T13:20:22;23.80;66.40
53645;DHT22;39547;45.554;12.068;2022-10-17T13:26:27;23.80;65.90
53645;DHT22;39547;45.554;12.068;2022-10-17T13:32:36;23.70;66.20
53645;DHT22;39547;45.554;12.068;2022-10-17T13:38:38;23.70;66.30
53645;DHT22;39547;45.554;12.068;2022-10-17T13:44:40;23.60;66.60
53645;DHT22;39547;45.554;12.068;2022-10-17T13:50:42;23.50;66.90
53645;DHT22;39547;45.554;12.068;2022-10-17T13:56:43;23.30;67.40
53645;DHT22;39547;45.554;12.068;2022-10-17T14:02:45;23.00;67.60
53645;DHT22;39547;45.554;12.068;2022-10-17T14:08:59;22.80;68.40
53645;DHT22;39547;45.554;12.068;2022-10-17T14:15:01;22.80;68.90
53645;DHT22;39547;45.554;12.068;2022-10-17T14:21:04;22.60;68.80
53645;DHT22;39547;45.554;12.068;2022-10-17T14:27:28;22.50;69.40
53645;DHT22;39547;45.554;12.068;2022-10-17T14:33:31;22.50;69.70
53645;DHT22;39547;45.554;12.068;2022-10-17T14:39:33;22.30;69.80
53645;DHT22;39547;45.554;12.068;2022-10-17T14:45:37;22.30;69.90
53645;DHT22;39547;45.554;12.068;2022-10-17T14:51:38;22.20;70.00
53645;DHT22;39547;45.554;12.068;2022-10-17T14:57:42;22.10;70.40
53645;DHT22;39547;45.554;12.068;2022-10-17T15:03:43;22.00;70.70
53645;DHT22;39547;45.554;12.068;2022-10-17T15:09:47;22.00;70.80
53645;DHT22;39547;45.554;12.068;2022-10-17T15:15:49;21.90;70.90
53645;DHT22;39547;45.554;12.068;2022-10-17T15:21:52;21.80;71.00
53645;DHT22;39547;45.554;12.068;2022-10-17T15:27:54;21.70;71.20
53645;DHT22;39547;45.554;12.068;2022-10-17T15:33:55;21.50;71.60
53645;DHT22;39547;45.554;12.068;2022-10-17T15:39:57;21.30;71.90
53645;DHT22;39547;45.554;12.068;2022-10-17T15:45:59;21.20;72.10
53645;DHT22;39547;45.554;12.068;2022-10-17T15:52:00;21.10;72.40
53645;DHT22;39547;45.554;12.068;2022-10-17T15:58:02;20.90;72.60
53645;DHT22;39547;45.554;12.068;2022-10-17T16:04:03;20.80;72.90
53645;DHT22;39547;45.554;12.068;2022-10-17T16:10:05;20.70;73.20
53645;DHT22;39547;45.554;12.068;2022-10-17T16:16:10;20.60;73.40
53645;DHT22;39547;45.554;12.068;2022-10-17T16:22:38;20.40;73.70
53645;DHT22;39547;45.554;12.068;2022-10-17T16:28:42;20.20;74.00
53645;DHT22;39547;45.554;12.068;2022-10-17T16:34:44;20.10;74.20
53645;DHT22;39547;45.554;12.068;2022-10-17T16:40:45;20.00;74.50
53645;DHT22;39547;45.554;12.068;2022-10-17T16:46:47;19.80;74.60
53645;DHT22;39547;45.554;12.068;2022-10-17T16:52:49;19.70;74.80
53645;DHT22;39547;45.554;12.068;2022-10-17T16:58:51;19.60;75.00
53645;DHT22;39547;45.554;12.068;2022-10-17T17:04:53;19.50;75.20
53645;DHT22;39547;45.554;12.068;2022-10-17T17:10:54;19.40;75.40
53645;DHT22;39547;45.554;12.068;2022-10-17T17:16:55;19.30;75.60
53645;DHT22;39547;45.554;12.068;2022-10-17T17:22:57;19.30;75.80
53645;DHT22;39547;45.554;12.068;2022-10-17T17:28:59;19.20;76.00
53645;DHT22;39547;45.554;12.068;2022-10-17T17:35:01;19.10;76.20
53645;DHT22;39547;45.554;12.068;2022-10-17T17:41:03;19.00;76.40
53645;DHT22;39547;45.554;12.068;2022-10-17T17:47:04;19.00;76.60
53645;DHT22;39547;45.554;12.068;2022-10-17T17:53:07;18.80;76.80
53645;DHT22;39547;45.554;12.068;2022-10-17T17:59:10;18.80;77.00
53645;DHT22;39547;45.554;12.068;2022-10-17T18:05:13;18.80;77.20
53645;DHT22;39547;45.554;12.068;2022-10-17T18:11:14;18.70;77.40
53645;DHT22;39547;45.554;12.068;2022-10-17T18:17:16;18.70;77.60
53645;DHT22;39547;45.554;12.068;2022-10-17T18:23:17;18.60;77.70
53645;DHT22;39547;45.554;12.068;2022-10-17T18:29:19;18.60;77.90
53645;DHT22;39547;45.554;12.068;2022-10-17T18:35:20;18.60;78.00
53645;DHT22;39547;45.554;12.068;2022-10-17T18:41:24;18.60;78.20
53645;DHT22;39547;45.554;12.068;2022-10-17T18:47:25;18.60;78.30
53645;DHT22;39547;45.554;12.068;2022-10-17T18:53:28;18.60;78.50
53645;DHT22;39547;45.554;12.068;2022-10-17T18:59:29;18.50;78.80
53645;DHT22;39547;45.554;12.068;2022-10-17T19:05:31;18.50;78.90
53645;DHT22;39547;45.554;12.068;2022-10-17T19:11:35;18.40;79.10
53645;DHT22;39547;45.554;12.068;2022-10-17T19:17:36;18.30;79.40
53645;DHT22;39547;45.554;12.068;2022-10-17T19:23:38;18.30;79.60
53645;DHT22;39547;45.554;12.068;2022-10-17T19:29:39;18.30;79.80
53645;DHT22;39547;45.554;12.068;2022-10-17T19:35:43;18.20;80.00
53645;DHT22;39547;45.554;12.068;2022-10-17T19:41:46;18.20;80.30
53645;DHT22;39547;45.554;12.068;2022-10-17T19:47:48;18.20;80.40
53645;DHT22;39547;45.554;12.068;2022-10-17T19:53:50;18.10;80.70
53645;DHT22;39547;45.554;12.068;2022-10-17T19:59:52;18.10;80.90
53645;DHT22;39547;45.554;12.068;2022-10-17T20:05:54;18.00;81.10
53645;DHT22;39547;45.554;12.068;2022-10-17T20:11:55;17.90;81.30
53645;DHT22;39547;45.554;12.068;2022-10-17T20:17:57;17.90;81.60
53645;DHT22;39547;45.554;12.068;2022-10-17T20:23:59;17.80;81.70
53645;DHT22;39547;45.554;12.068;2022-10-17T20:30:01;17.70;81.90
53645;DHT22;39547;45.554;12.068;2022-10-17T20:36:05;17.70;82.10
53645;DHT22;39547;45.554;12.068;2022-10-17T20:42:06;17.60;82.20
53645;DHT22;39547;45.554;12.068;2022-10-17T20:48:13;17.50;82.40
53645;DHT22;39547;45.554;12.068;2022-10-17T20:54:15;17.40;82.40
53645;DHT22;39547;45.554;12.068;2022-10-17T21:00:16;17.30;82.70
53645;DHT22;39547;45.554;12.068;2022-10-17T21:06:18;17.30;82.50
53645;DHT22;39547;45.554;12.068;2022-10-17T21:12:20;17.20;82.60
53645;DHT22;39547;45.554;12.068;2022-10-17T21:18:21;17.20;82.70
53645;DHT22;39547;45.554;12.068;2022-10-17T21:24:23;17.20;82.90
53645;DHT22;39547;45.554;12.068;2022-10-17T21:30:24;17.20;83.10
53645;DHT22;39547;45.554;12.068;2022-10-17T21:36:26;17.20;83.20
53645;DHT22;39547;45.554;12.068;2022-10-17T21:42:28;17.10;83.30
53645;DHT22;39547;45.554;12.068;2022-10-17T21:48:29;17.00;83.30
53645;DHT22;39547;45.554;12.068;2022-10-17T21:54:31;17.00;83.50
53645;DHT22;39547;45.554;12.068;2022-10-17T22:00:32;16.90;83.50
53645;DHT22;39547;45.554;12.068;2022-10-17T22:06:36;16.90;83.60
53645;DHT22;39547;45.554;12.068;2022-10-17T22:12:38;16.90;83.70
53645;DHT22;39547;45.554;12.068;2022-10-17T22:18:40;16.90;83.70
53645;DHT22;39547;45.554;12.068;2022-10-17T22:24:42;16.80;83.80
53645;DHT22;39547;45.554;12.068;2022-10-17T22:30:43;16.80;83.90
53645;DHT22;39547;45.554;12.068;2022-10-17T22:36:45;16.80;83.90
53645;DHT22;39547;45.554;12.068;2022-10-17T22:42:49;16.70;84.00
53645;DHT22;39547;45.554;12.068;2022-10-17T22:48:50;16.60;84.00
53645;DHT22;39547;45.554;12.068;2022-10-17T22:54:51;16.50;84.00
53645;DHT22;39547;45.554;12.068;2022-10-17T23:00:54;16.40;84.10
53645;DHT22;39547;45.554;12.068;2022-10-17T23:06:55;16.50;84.10
53645;DHT22;39547;45.554;12.068;2022-10-17T23:12:56;16.40;84.10
53645;DHT22;39547;45.554;12.068;2022-10-17T23:18:58;16.30;84.10
53645;DHT22;39547;45.554;12.068;2022-10-17T23:24:59;16.30;84.20
53645;DHT22;39547;45.554;12.068;2022-10-17T23:31:12;16.20;84.30
53645;DHT22;39547;45.554;12.068;2022-10-17T23:37:14;16.20;84.30
53645;DHT22;39547;45.554;12.068;2022-10-17T23:43:15;16.00;84.50
53645;DHT22;39547;45.554;12.068;2022-10-17T23:49:17;15.90;84.60
53645;DHT22;39547;45.554;12.068;2022-10-17T23:55:18;15.70;84.70
